createdAt,value
2019-05-11T00:00:17.086Z,0.00
2019-05-11T00:01:17.127Z,0.00
2019-05-11T00:02:17.148Z,0.00
2019-05-11T00:03:17.177Z,0.00
2019-05-11T00:04:17.215Z,0.00
2019-05-11T00:05:17.240Z,0.00
2019-05-11T00:06:17.273Z,0.00
2019-05-11T00:07:17.306Z,0.00
2019-05-11T00:08:17.431Z,0.00
2019-05-11T00:09:17.363Z,0.00
2019-05-11T00:10:17.393Z,0.00
2019-05-11T00:11:17.426Z,0.00
2019-05-11T00:12:17.456Z,0.00
2019-05-11T00:13:17.487Z,0.00
2019-05-11T00:14:17.520Z,0.00
2019-05-11T00:15:17.547Z,0.00
2019-05-11T00:16:19.207Z,0.00
2019-05-11T00:17:17.610Z,0.00
2019-05-11T00:18:17.641Z,0.00
2019-05-11T00:19:17.671Z,0.00
2019-05-11T00:20:17.701Z,0.00
2019-05-11T00:21:17.734Z,0.00
2019-05-11T00:22:17.766Z,0.00
2019-05-11T00:23:17.793Z,0.00
2019-05-11T00:24:17.824Z,0.00
2019-05-11T00:25:17.858Z,0.00
2019-05-11T00:26:17.887Z,0.00
2019-05-11T00:27:17.925Z,0.00
2019-05-11T00:28:17.948Z,0.00
2019-05-11T00:29:17.979Z,0.00
2019-05-11T00:30:18.013Z,0.00
2019-05-11T00:31:18.044Z,0.00
2019-05-11T00:32:18.074Z,0.00
2019-05-11T00:33:18.108Z,0.00
2019-05-11T00:34:18.135Z,0.00
2019-05-11T00:35:18.168Z,0.00
2019-05-11T00:36:18.198Z,0.00
2019-05-11T00:37:18.229Z,0.00
2019-05-11T00:38:18.259Z,0.00
2019-05-11T00:39:18.293Z,0.00
2019-05-11T00:40:18.323Z,0.00
2019-05-11T00:41:18.352Z,0.00
2019-05-11T00:42:18.385Z,0.00
2019-05-11T00:43:18.414Z,0.00
2019-05-11T00:44:18.444Z,0.00
2019-05-11T00:45:18.485Z,0.00
2019-05-11T00:46:18.510Z,0.00
2019-05-11T00:47:18.537Z,0.00
2019-05-11T00:48:18.570Z,0.00
2019-05-11T00:49:18.602Z,0.00
2019-05-11T00:50:18.631Z,0.00
2019-05-11T00:51:18.661Z,0.00
2019-05-11T00:52:18.696Z,0.00
2019-05-11T00:53:18.736Z,0.00
2019-05-11T00:54:18.759Z,0.00
2019-05-11T00:55:18.789Z,0.00
2019-05-11T00:56:18.817Z,0.00
2019-05-11T00:57:18.850Z,0.00
2019-05-11T00:58:18.894Z,0.00
2019-05-11T00:59:21.662Z,0.00
2019-05-11T01:00:18.943Z,0.00
2019-05-11T01:01:18.978Z,0.00
2019-05-11T01:02:19.009Z,0.00
2019-05-11T01:03:19.036Z,0.00
2019-05-11T01:04:19.095Z,0.00
2019-05-11T01:05:19.107Z,0.00
2019-05-11T01:06:19.144Z,0.00
2019-05-11T01:07:19.269Z,0.00
2019-05-11T01:08:19.192Z,0.00
2019-05-11T01:09:19.225Z,0.00
2019-05-11T01:10:25.560Z,0.00
2019-05-11T01:11:19.288Z,0.00
2019-05-11T01:12:19.319Z,0.00
2019-05-11T01:13:19.355Z,0.00
2019-05-11T01:14:19.381Z,0.00
2019-05-11T01:15:19.412Z,0.00
2019-05-11T01:16:19.446Z,0.00
2019-05-11T01:17:19.479Z,0.00
2019-05-11T01:18:19.508Z,0.00
2019-05-11T01:19:19.537Z,0.00
2019-05-11T01:20:19.570Z,0.00
2019-05-11T01:21:19.603Z,0.00
2019-05-11T01:22:19.634Z,0.00
2019-05-11T01:23:19.664Z,0.00
2019-05-11T01:24:19.694Z,0.00
2019-05-11T01:25:19.725Z,0.00
2019-05-11T01:26:19.758Z,0.00
2019-05-11T01:27:19.790Z,0.00
2019-05-11T01:28:19.824Z,0.00
2019-05-11T01:29:19.853Z,0.00
2019-05-11T01:30:19.886Z,0.00
2019-05-11T01:31:19.918Z,0.00
2019-05-11T01:32:19.944Z,0.00
2019-05-11T01:33:19.976Z,0.00
2019-05-11T01:34:20.010Z,0.00
2019-05-11T01:35:20.037Z,0.00
2019-05-11T01:36:20.070Z,4.00
2019-05-11T01:37:20.101Z,4.00
2019-05-11T01:38:20.141Z,4.00
2019-05-11T01:39:20.249Z,4.00
2019-05-11T01:40:20.194Z,0.00
2019-05-11T01:41:20.230Z,4.00
2019-05-11T01:42:20.261Z,4.00
2019-05-11T01:43:20.291Z,4.00
2019-05-11T01:44:20.321Z,8.00
2019-05-11T01:45:20.350Z,4.00
2019-05-11T01:46:20.386Z,8.00
2019-05-11T01:47:20.413Z,4.00
2019-05-11T01:48:20.444Z,8.00
2019-05-11T01:49:20.476Z,8.00
2019-05-11T01:50:20.555Z,12.00
2019-05-11T01:51:20.888Z,12.00
2019-05-11T01:52:20.571Z,12.00
2019-05-11T01:53:20.613Z,16.00
2019-05-11T01:54:20.631Z,16.00
2019-05-11T01:55:20.663Z,20.00
2019-05-11T01:56:20.696Z,20.00
2019-05-11T01:57:20.730Z,28.00
2019-05-11T01:58:20.758Z,32.00
2019-05-11T01:59:20.788Z,36.00
2019-05-11T02:00:20.821Z,40.00
2019-05-11T02:01:20.852Z,44.00
2019-05-11T02:02:20.883Z,48.00
2019-05-11T02:03:20.911Z,60.00
2019-05-11T02:04:20.942Z,68.00
2019-05-11T02:05:20.975Z,76.00
2019-05-11T02:06:21.012Z,80.00
2019-05-11T02:07:21.038Z,88.00
2019-05-11T02:08:21.067Z,100.00
2019-05-11T02:09:21.098Z,104.00
2019-05-11T02:10:21.130Z,108.00
2019-05-11T02:11:21.161Z,116.00
2019-05-11T02:12:21.191Z,124.00
2019-05-11T02:13:21.223Z,132.00
2019-05-11T02:14:21.260Z,140.00
2019-05-11T02:15:21.288Z,144.00
2019-05-11T02:16:21.324Z,152.00
2019-05-11T02:17:21.351Z,164.00
2019-05-11T02:18:21.383Z,180.00
2019-05-11T02:19:21.412Z,196.00
2019-05-11T02:20:21.444Z,212.00
2019-05-11T02:21:21.474Z,224.00
2019-05-11T02:22:21.505Z,240.00
2019-05-11T02:23:21.537Z,256.00
2019-05-11T02:24:21.570Z,276.00
2019-05-11T02:25:21.598Z,300.00
2019-05-11T02:26:21.627Z,324.00
2019-05-11T02:27:21.663Z,352.00
2019-05-11T02:28:21.695Z,372.00
2019-05-11T02:29:21.725Z,400.00
2019-05-11T02:30:21.756Z,424.00
2019-05-11T02:31:21.806Z,448.00
2019-05-11T02:32:21.818Z,468.00
2019-05-11T02:33:21.850Z,496.00
2019-05-11T02:34:21.886Z,528.00
2019-05-11T02:35:21.909Z,564.00
2019-05-11T02:36:21.945Z,608.00
2019-05-11T02:37:21.972Z,644.00
2019-05-11T02:38:22.003Z,688.00
2019-05-11T02:39:22.036Z,736.00
2019-05-11T02:40:22.066Z,796.00
2019-05-11T02:41:35.711Z,856.00
2019-05-11T02:42:22.133Z,884.00
2019-05-11T02:43:22.162Z,884.00
2019-05-11T02:44:22.190Z,876.00
2019-05-11T02:45:22.222Z,888.00
2019-05-11T02:46:22.252Z,904.00
2019-05-11T02:47:22.290Z,924.00
2019-05-11T02:48:22.315Z,944.00
2019-05-11T02:49:22.346Z,960.00
2019-05-11T02:50:22.390Z,972.00
2019-05-11T02:51:22.410Z,980.00
2019-05-11T02:52:22.444Z,984.00
2019-05-11T02:53:22.468Z,988.00
2019-05-11T02:54:22.499Z,996.00
2019-05-11T02:55:22.542Z,1000.00
2019-05-11T02:56:22.566Z,1012.00
2019-05-11T02:57:22.594Z,1032.00
2019-05-11T02:58:22.634Z,1056.00
2019-05-11T02:59:22.659Z,1088.00
2019-05-11T03:00:22.686Z,1124.00
2019-05-11T03:01:22.719Z,1172.00
2019-05-11T03:02:22.754Z,1232.00
2019-05-11T03:03:22.787Z,1304.00
2019-05-11T03:04:22.811Z,1380.00
2019-05-11T03:05:22.848Z,1444.00
2019-05-11T03:06:22.875Z,1492.00
2019-05-11T03:07:22.908Z,1520.00
2019-05-11T03:08:22.937Z,1524.00
2019-05-11T03:09:22.969Z,1528.00
2019-05-11T03:10:23.002Z,1508.00
2019-05-11T03:11:23.032Z,1484.00
2019-05-11T03:12:23.091Z,1484.00
2019-05-11T03:13:23.092Z,1484.00
2019-05-11T03:14:23.129Z,1476.00
2019-05-11T03:15:23.158Z,1472.00
2019-05-11T03:16:23.189Z,1492.00
2019-05-11T03:17:23.219Z,1536.00
2019-05-11T03:18:23.254Z,1604.00
2019-05-11T03:19:23.280Z,1676.00
2019-05-11T03:20:23.314Z,1736.00
2019-05-11T03:21:23.404Z,1796.00
2019-05-11T03:22:23.379Z,1868.00
2019-05-11T03:23:23.403Z,1948.00
2019-05-11T03:24:24.113Z,2056.00
2019-05-11T03:25:23.465Z,2164.00
2019-05-11T03:26:23.498Z,2276.00
2019-05-11T03:27:23.532Z,2396.00
2019-05-11T03:28:23.566Z,2516.00
2019-05-11T03:29:23.596Z,2640.00
2019-05-11T03:30:23.624Z,2752.00
2019-05-11T03:31:23.658Z,2852.00
2019-05-11T03:32:23.687Z,2972.00
2019-05-11T03:33:23.721Z,3064.00
2019-05-11T03:34:23.753Z,3068.00
2019-05-11T03:35:23.784Z,3048.00
2019-05-11T03:36:23.812Z,3052.00
2019-05-11T03:37:23.847Z,3084.00
2019-05-11T03:38:23.885Z,3152.00
2019-05-11T03:39:23.907Z,3180.00
2019-05-11T03:40:23.938Z,3176.00
2019-05-11T03:41:23.970Z,3244.00
2019-05-11T03:42:24.016Z,3336.00
2019-05-11T03:43:24.033Z,3404.00
2019-05-11T03:44:24.069Z,3440.00
2019-05-11T03:45:24.103Z,3516.00
2019-05-11T03:46:24.128Z,3652.00
2019-05-11T03:47:24.160Z,3796.00
2019-05-11T03:48:24.192Z,3904.00
2019-05-11T03:49:24.230Z,4000.00
2019-05-11T03:50:24.255Z,4120.00
2019-05-11T03:51:24.298Z,4232.00
2019-05-11T03:52:24.319Z,4328.00
2019-05-11T03:53:24.349Z,4380.00
2019-05-11T03:54:24.382Z,4416.00
2019-05-11T03:55:24.413Z,4476.00
2019-05-11T03:56:24.449Z,4576.00
2019-05-11T03:57:24.479Z,4724.00
2019-05-11T03:58:26.212Z,4860.00
2019-05-11T03:59:24.543Z,4988.00
2019-05-11T04:00:24.581Z,5136.00
2019-05-11T04:01:24.607Z,5312.00
2019-05-11T04:02:24.639Z,5500.00
2019-05-11T04:03:24.673Z,5660.00
2019-05-11T04:04:24.717Z,5880.00
2019-05-11T04:05:24.771Z,6192.00
2019-05-11T04:06:24.769Z,6436.00
2019-05-11T04:07:24.803Z,6580.00
2019-05-11T04:08:24.838Z,6632.00
2019-05-11T04:09:24.864Z,6552.00
2019-05-11T04:10:25.728Z,6416.00
2019-05-11T04:11:24.929Z,6212.00
2019-05-11T04:12:34.535Z,6020.00
2019-05-11T04:13:24.991Z,5912.00
2019-05-11T04:14:25.025Z,5992.00
2019-05-11T04:15:25.056Z,6160.00
2019-05-11T04:16:25.091Z,6340.00
2019-05-11T04:17:25.122Z,6476.00
2019-05-11T04:18:25.155Z,6528.00
2019-05-11T04:19:25.192Z,6496.00
2019-05-11T04:20:25.220Z,6488.00
2019-05-11T04:21:25.254Z,6528.00
2019-05-11T04:22:25.284Z,6576.00
2019-05-11T04:23:25.314Z,6596.00
2019-05-11T04:24:25.348Z,6580.00
2019-05-11T04:25:25.380Z,6628.00
2019-05-11T04:26:25.418Z,6764.00
2019-05-11T04:27:25.446Z,7028.00
2019-05-11T04:28:25.477Z,7312.00
2019-05-11T04:29:25.514Z,7564.00
2019-05-11T04:30:25.543Z,7816.00
2019-05-11T04:31:25.576Z,8116.00
2019-05-11T04:32:25.607Z,8464.00
2019-05-11T04:33:25.640Z,8764.00
2019-05-11T04:34:25.676Z,8948.00
2019-05-11T04:35:25.707Z,8996.00
2019-05-11T04:36:25.745Z,9068.00
2019-05-11T04:37:25.774Z,9188.00
2019-05-11T04:38:25.802Z,9428.00
2019-05-11T04:39:25.840Z,9744.00
2019-05-11T04:40:25.868Z,10012.00
2019-05-11T04:41:25.906Z,10228.00
2019-05-11T04:42:25.938Z,10448.00
2019-05-11T04:43:25.968Z,10632.00
2019-05-11T04:44:26.000Z,10836.00
2019-05-11T04:45:26.037Z,11156.00
2019-05-11T04:46:26.069Z,11500.00
2019-05-11T04:47:26.109Z,11844.00
2019-05-11T04:48:26.153Z,12012.00
2019-05-11T04:49:26.167Z,12000.00
2019-05-11T04:50:26.200Z,12108.00
2019-05-11T04:51:26.235Z,12240.00
2019-05-11T04:52:26.270Z,12288.00
2019-05-11T04:53:26.301Z,12552.00
2019-05-11T04:54:26.332Z,13052.00
2019-05-11T04:55:26.367Z,13516.00
2019-05-11T04:56:26.401Z,13792.00
2019-05-11T04:57:26.434Z,13884.00
2019-05-11T04:58:26.471Z,13728.00
2019-05-11T04:59:26.515Z,13324.00
2019-05-11T05:00:26.541Z,12764.00
2019-05-11T05:01:26.571Z,12264.00
2019-05-11T05:02:27.324Z,11920.00
2019-05-11T05:03:39.850Z,11616.00
2019-05-11T05:04:26.672Z,11144.00
2019-05-11T05:05:26.705Z,10496.00
2019-05-11T05:06:26.735Z,9896.00
2019-05-11T05:07:26.770Z,9192.00
2019-05-11T05:08:28.036Z,8476.00
2019-05-11T05:09:26.931Z,7884.00
2019-05-11T05:10:26.874Z,7444.00
2019-05-11T05:11:30.559Z,7168.00
2019-05-11T05:12:26.964Z,7104.00
2019-05-11T05:13:29.514Z,7188.00
2019-05-11T05:14:27.009Z,7364.00
2019-05-11T05:15:27.041Z,7560.00
2019-05-11T05:16:30.978Z,7800.00
2019-05-11T05:17:27.112Z,8060.00
2019-05-11T05:18:27.143Z,8228.00
2019-05-11T05:19:27.180Z,8196.00
2019-05-11T05:20:27.210Z,8036.00
2019-05-11T05:21:27.249Z,7980.00
2019-05-11T05:22:28.089Z,8064.00
2019-05-11T05:23:27.308Z,8100.00
2019-05-11T05:24:27.351Z,8068.00
2019-05-11T05:25:27.379Z,7988.00
2019-05-11T05:26:27.414Z,7912.00
2019-05-11T05:27:27.648Z,7764.00
2019-05-11T05:28:27.481Z,7568.00
2019-05-11T05:29:27.520Z,7320.00
2019-05-11T05:30:27.545Z,7176.00
2019-05-11T05:31:27.581Z,7204.00
2019-05-11T05:32:27.615Z,7332.00
2019-05-11T05:33:27.656Z,7536.00
2019-05-11T05:34:27.680Z,7744.00
2019-05-11T05:35:27.714Z,8008.00
2019-05-11T05:36:27.745Z,8400.00
2019-05-11T05:37:27.780Z,8820.00
2019-05-11T05:38:27.813Z,9244.00
2019-05-11T05:39:27.855Z,9584.00
2019-05-11T05:40:27.879Z,9712.00
2019-05-11T05:41:27.916Z,9816.00
2019-05-11T05:42:27.949Z,9972.00
2019-05-11T05:43:28.649Z,10212.00
2019-05-11T05:44:28.239Z,10592.00
2019-05-11T05:45:28.048Z,11192.00
2019-05-11T05:46:28.085Z,11984.00
2019-05-11T05:47:28.115Z,12760.00
2019-05-11T05:48:28.151Z,13392.00
2019-05-11T05:49:28.182Z,13864.00
2019-05-11T05:50:28.222Z,14380.00
2019-05-11T05:51:28.250Z,14872.00
2019-05-11T05:52:28.282Z,15364.00
2019-05-11T05:53:28.321Z,16044.00
2019-05-11T05:54:28.355Z,17088.00
2019-05-11T05:55:28.383Z,17600.00
2019-05-11T05:56:28.418Z,17728.00
2019-05-11T05:57:28.452Z,17760.00
2019-05-11T05:58:28.492Z,18144.00
2019-05-11T05:59:28.522Z,18496.00
2019-05-11T06:00:28.560Z,18784.00
2019-05-11T06:01:28.594Z,19232.00
2019-05-11T06:02:28.651Z,19648.00
2019-05-11T06:03:28.658Z,20128.00
2019-05-11T06:04:28.698Z,20736.00
2019-05-11T06:05:28.735Z,21504.00
2019-05-11T06:06:28.825Z,22240.00
2019-05-11T06:07:28.799Z,22784.00
2019-05-11T06:08:28.834Z,23328.00
2019-05-11T06:09:28.873Z,23776.00
2019-05-11T06:10:28.909Z,24128.00
2019-05-11T06:11:28.941Z,24288.00
2019-05-11T06:12:28.984Z,24512.00
2019-05-11T06:13:44.091Z,25056.00
2019-05-11T06:14:29.050Z,25088.00
2019-05-11T06:15:29.085Z,25376.00
2019-05-11T06:16:29.118Z,25664.00
2019-05-11T06:17:29.160Z,26304.00
2019-05-11T06:18:29.192Z,27680.00
2019-05-11T06:19:29.226Z,31968.00
2019-05-11T06:20:29.273Z,28800.00
2019-05-11T06:21:29.299Z,30240.00
2019-05-11T06:22:29.343Z,30048.00
2019-05-11T06:23:29.373Z,30656.00
2019-05-11T06:24:29.420Z,30880.00
2019-05-11T06:25:29.732Z,31552.00
2019-05-11T06:26:29.485Z,32320.00
2019-05-11T06:27:29.520Z,33696.00
2019-05-11T06:28:29.559Z,38688.00
2019-05-11T06:29:29.598Z,54912.00
2019-05-11T06:30:29.635Z,57568.00
2019-05-11T06:31:29.670Z,33184.00
2019-05-11T06:32:29.707Z,33376.00
2019-05-11T06:33:29.749Z,31808.00
2019-05-11T06:34:29.784Z,31744.00
2019-05-11T06:35:29.823Z,32640.00
2019-05-11T06:36:29.862Z,34816.00
2019-05-11T06:37:29.902Z,35840.00
2019-05-11T06:38:29.952Z,36224.00
2019-05-11T06:39:30.013Z,36384.00
2019-05-11T06:40:30.018Z,39360.00
2019-05-11T06:41:30.057Z,35488.00
2019-05-11T06:42:30.099Z,35552.00
2019-05-11T06:43:30.134Z,40256.00
2019-05-11T06:44:30.174Z,48256.00
2019-05-11T06:45:30.218Z,42368.00
2019-05-11T06:46:30.255Z,37824.00
2019-05-11T06:47:30.292Z,42464.00
2019-05-11T06:48:30.336Z,64832.00
2019-05-11T06:49:30.372Z,61792.00
2019-05-11T06:50:30.413Z,37728.00
2019-05-11T06:51:30.452Z,37504.00
2019-05-11T06:52:30.513Z,39104.00
2019-05-11T06:53:30.539Z,36928.00
2019-05-11T06:54:30.574Z,36736.00
2019-05-11T06:55:30.614Z,35584.00
2019-05-11T06:56:30.663Z,35936.00
2019-05-11T06:57:30.696Z,40000.00
2019-05-11T06:58:30.748Z,36192.00
2019-05-11T06:59:30.801Z,40288.00
2019-05-11T07:00:30.824Z,42720.00
2019-05-11T07:01:30.863Z,42368.00
2019-05-11T07:02:30.902Z,44448.00
2019-05-11T07:03:30.941Z,44800.00
2019-05-11T07:04:30.994Z,46752.00
2019-05-11T07:05:31.023Z,44992.00
2019-05-11T07:06:31.068Z,53024.00
2019-05-11T07:07:46.079Z,45856.00
2019-05-11T07:08:31.146Z,53504.00
2019-05-11T07:09:31.188Z,63072.00
2019-05-11T07:10:31.250Z,50656.00
2019-05-11T07:11:31.275Z,47136.00
2019-05-11T07:12:31.317Z,51424.00
2019-05-11T07:13:31.354Z,47712.00
2019-05-11T07:14:31.397Z,47584.00
2019-05-11T07:15:31.437Z,50560.00
2019-05-11T07:16:31.486Z,57760.00
2019-05-11T07:17:31.524Z,61216.00
2019-05-11T07:18:31.563Z,55168.00
2019-05-11T07:19:31.614Z,59744.00
2019-05-11T07:20:31.664Z,55008.00
2019-05-11T07:21:31.691Z,49440.00
2019-05-11T07:22:31.736Z,55040.00
2019-05-11T07:23:31.779Z,51520.00
2019-05-11T07:24:31.820Z,56064.00
2019-05-11T07:25:31.868Z,49984.00
2019-05-11T07:26:31.907Z,43872.00
2019-05-11T07:27:31.953Z,50464.00
2019-05-11T07:28:32.025Z,45024.00
2019-05-11T07:29:32.036Z,63232.00
2019-05-11T07:30:32.080Z,60736.00
2019-05-11T07:31:32.124Z,44544.00
2019-05-11T07:32:32.167Z,54720.00
2019-05-11T07:33:32.211Z,42624.00
2019-05-11T07:34:32.257Z,41024.00
2019-05-11T07:35:32.301Z,45664.00
2019-05-11T07:36:32.342Z,69216.00
2019-05-11T07:37:32.389Z,64288.00
2019-05-11T07:38:32.427Z,56256.00
2019-05-11T07:39:32.471Z,55776.00
2019-05-11T07:40:32.517Z,67648.00
2019-05-11T07:41:32.561Z,67616.00
2019-05-11T07:42:32.606Z,60768.00
2019-05-11T07:43:32.646Z,57920.00
2019-05-11T07:44:38.259Z,58560.00
2019-05-11T07:45:32.735Z,50016.00
2019-05-11T07:46:32.780Z,49120.00
2019-05-11T07:47:32.822Z,67424.00
2019-05-11T07:48:32.869Z,68992.00
2019-05-11T07:49:32.911Z,67072.00
2019-05-11T07:50:32.956Z,59040.00
2019-05-11T07:51:33.002Z,45376.00
2019-05-11T07:52:33.056Z,52768.00
2019-05-11T07:53:33.096Z,48480.00
2019-05-11T07:54:33.137Z,43104.00
2019-05-11T07:55:33.179Z,42784.00
2019-05-11T07:56:33.227Z,56672.00
2019-05-11T07:57:33.269Z,47616.00
2019-05-11T07:58:33.318Z,53824.00
2019-05-11T07:59:33.359Z,53088.00
2019-05-11T08:00:36.471Z,53824.00
2019-05-11T08:01:33.454Z,40416.00
2019-05-11T08:02:33.496Z,36704.00
2019-05-11T08:03:33.536Z,35744.00
2019-05-11T08:04:33.581Z,35776.00
2019-05-11T08:05:33.625Z,36416.00
2019-05-11T08:06:33.672Z,37472.00
2019-05-11T08:07:33.715Z,35744.00
2019-05-11T08:08:33.758Z,33504.00
2019-05-11T08:09:33.801Z,32960.00
2019-05-11T08:10:33.849Z,32416.00
2019-05-11T08:11:33.903Z,31808.00
2019-05-11T08:12:33.931Z,31008.00
2019-05-11T08:13:33.980Z,30272.00
2019-05-11T08:14:34.021Z,30048.00
2019-05-11T08:15:34.063Z,30176.00
2019-05-11T08:16:34.107Z,30784.00
2019-05-11T08:17:34.149Z,32032.00
2019-05-11T08:18:34.192Z,32928.00
2019-05-11T08:19:34.239Z,33856.00
2019-05-11T08:20:34.276Z,39424.00
2019-05-11T08:21:34.316Z,35680.00
2019-05-11T08:22:34.357Z,35936.00
2019-05-11T08:23:34.400Z,36064.00
2019-05-11T08:24:34.440Z,36096.00
2019-05-11T08:25:34.488Z,35264.00
2019-05-11T08:26:34.527Z,34560.00
2019-05-11T08:27:34.566Z,34368.00
2019-05-11T08:28:34.609Z,35904.00
2019-05-11T08:29:34.650Z,33696.00
2019-05-11T08:30:34.702Z,30976.00
2019-05-11T08:31:34.735Z,30400.00
2019-05-11T08:32:34.819Z,29696.00
2019-05-11T08:33:34.880Z,29824.00
2019-05-11T08:34:34.885Z,33600.00
2019-05-11T08:35:34.901Z,30912.00
2019-05-11T08:36:34.941Z,29504.00
2019-05-11T08:37:34.981Z,29088.00
2019-05-11T08:38:35.021Z,28832.00
2019-05-11T08:39:35.063Z,28640.00
2019-05-11T08:40:35.103Z,28416.00
2019-05-11T08:41:35.143Z,28288.00
2019-05-11T08:42:37.663Z,28352.00
2019-05-11T08:43:35.227Z,28480.00
2019-05-11T08:44:37.826Z,28768.00
2019-05-11T08:45:35.310Z,29280.00
2019-05-11T08:46:35.350Z,29984.00
2019-05-11T08:47:37.571Z,30784.00
2019-05-11T08:48:35.430Z,31744.00
2019-05-11T08:49:37.892Z,32416.00
2019-05-11T08:50:35.511Z,33120.00
2019-05-11T08:51:35.549Z,33536.00
2019-05-11T08:52:35.592Z,33792.00
2019-05-11T08:53:35.631Z,34176.00
2019-05-11T08:54:38.033Z,34688.00
2019-05-11T08:55:37.988Z,35840.00
2019-05-11T08:56:38.094Z,37376.00
2019-05-11T08:57:35.797Z,39424.00
2019-05-11T08:58:38.025Z,41984.00
2019-05-11T08:59:38.021Z,44704.00
2019-05-11T09:00:35.914Z,46944.00
2019-05-11T09:01:35.953Z,45344.00
2019-05-11T09:02:38.170Z,44448.00
2019-05-11T09:03:38.556Z,47264.00
2019-05-11T09:04:41.079Z,46784.00
2019-05-11T09:05:38.275Z,50208.00
2019-05-11T09:06:37.687Z,52448.00
2019-05-11T09:07:38.327Z,46528.00
2019-05-11T09:08:38.648Z,46656.00
2019-05-11T09:09:38.074Z,45152.00
2019-05-11T09:10:37.641Z,43072.00
2019-05-11T09:11:38.716Z,44832.00
2019-05-11T09:12:38.185Z,44160.00
2019-05-11T09:13:36.452Z,42400.00
2019-05-11T09:14:38.761Z,40896.00
2019-05-11T09:15:38.225Z,39424.00
2019-05-11T09:16:38.393Z,39072.00
2019-05-11T09:17:38.121Z,39328.00
2019-05-11T09:18:38.607Z,40928.00
2019-05-11T09:19:38.797Z,37152.00
2019-05-11T09:20:37.840Z,33824.00
2019-05-11T09:21:38.283Z,32160.00
2019-05-11T09:22:38.085Z,31072.00
2019-05-11T09:23:39.948Z,30432.00
2019-05-11T09:24:38.593Z,30208.00
2019-05-11T09:25:38.533Z,30240.00
2019-05-11T09:26:38.945Z,30144.00
2019-05-11T09:27:37.671Z,29952.00
2019-05-11T09:28:38.416Z,29760.00
2019-05-11T09:29:38.675Z,29472.00
2019-05-11T09:30:37.851Z,29024.00
2019-05-11T09:31:38.210Z,28672.00
2019-05-11T09:32:38.516Z,28480.00
2019-05-11T09:33:38.644Z,28512.00
2019-05-11T09:34:37.846Z,28704.00
2019-05-11T09:35:47.516Z,29216.00
2019-05-11T09:36:38.929Z,29888.00
2019-05-11T09:37:38.191Z,30688.00
2019-05-11T09:38:38.384Z,31616.00
2019-05-11T09:39:38.308Z,32640.00
2019-05-11T09:40:38.582Z,33152.00
2019-05-11T09:41:38.355Z,33632.00
2019-05-11T09:42:38.912Z,34112.00
2019-05-11T09:43:37.797Z,34240.00
2019-05-11T09:44:38.078Z,34112.00
2019-05-11T09:45:48.378Z,34464.00
2019-05-11T09:46:38.560Z,34720.00
2019-05-11T09:47:38.606Z,32768.00
2019-05-11T09:48:38.079Z,32160.00
2019-05-11T09:49:46.608Z,31776.00
2019-05-11T09:50:38.755Z,31456.00
2019-05-11T09:51:38.232Z,30848.00
2019-05-11T09:52:38.602Z,30208.00
2019-05-11T09:53:38.837Z,29504.00
2019-05-11T09:54:38.507Z,28864.00
2019-05-11T09:55:38.872Z,28576.00
2019-05-11T09:56:38.413Z,28576.00
2019-05-11T09:57:38.395Z,28768.00
2019-05-11T09:58:38.800Z,29088.00
2019-05-11T09:59:38.708Z,29344.00
2019-05-11T10:00:38.955Z,29248.00
2019-05-11T10:01:38.414Z,28928.00
2019-05-11T10:02:38.806Z,28480.00
2019-05-11T10:03:38.827Z,27968.00
2019-05-11T10:04:38.532Z,27520.00
2019-05-11T10:05:38.572Z,27200.00
2019-05-11T10:06:39.010Z,27040.00
2019-05-11T10:07:38.650Z,26720.00
2019-05-11T10:08:38.691Z,26336.00
2019-05-11T10:09:38.731Z,25760.00
2019-05-11T10:10:38.769Z,25024.00
2019-05-11T10:11:39.953Z,24288.00
2019-05-11T10:12:38.852Z,23648.00
2019-05-11T10:13:38.888Z,23200.00
2019-05-11T10:14:38.927Z,22848.00
2019-05-11T10:15:38.966Z,22624.00
2019-05-11T10:16:39.005Z,22592.00
2019-05-11T10:17:39.047Z,22720.00
2019-05-11T10:18:39.083Z,22944.00
2019-05-11T10:19:39.649Z,23264.00
2019-05-11T10:20:39.353Z,23616.00
2019-05-11T10:21:39.201Z,23904.00
2019-05-11T10:22:39.242Z,24064.00
2019-05-11T10:23:42.333Z,24160.00
2019-05-11T10:24:39.317Z,24128.00
2019-05-11T10:25:39.402Z,24000.00
2019-05-11T10:26:39.396Z,23840.00
2019-05-11T10:27:39.435Z,23680.00
2019-05-11T10:28:39.472Z,23520.00
2019-05-11T10:29:39.510Z,23552.00
2019-05-11T10:30:39.549Z,23488.00
2019-05-11T10:31:39.587Z,23424.00
2019-05-11T10:32:39.629Z,23264.00
2019-05-11T10:33:39.666Z,23072.00
2019-05-11T10:34:39.701Z,22752.00
2019-05-11T10:35:39.739Z,22336.00
2019-05-11T10:36:39.778Z,21920.00
2019-05-11T10:37:39.818Z,21472.00
2019-05-11T10:38:39.854Z,20960.00
2019-05-11T10:39:39.893Z,20512.00
2019-05-11T10:40:39.933Z,20096.00
2019-05-11T10:41:39.970Z,19776.00
2019-05-11T10:42:40.009Z,19616.00
2019-05-11T10:43:40.045Z,19520.00
2019-05-11T10:44:40.084Z,19424.00
2019-05-11T10:45:40.121Z,19232.00
2019-05-11T10:46:40.159Z,18976.00
2019-05-11T10:47:40.198Z,18720.00
2019-05-11T10:48:40.236Z,18368.00
2019-05-11T10:49:40.273Z,17856.00
2019-05-11T10:50:40.309Z,17312.00
2019-05-11T10:51:40.352Z,16604.00
2019-05-11T10:52:40.387Z,16160.00
2019-05-11T10:53:40.428Z,15828.00
2019-05-11T10:54:40.461Z,15584.00
2019-05-11T10:55:40.497Z,15404.00
2019-05-11T10:56:40.534Z,15188.00
2019-05-11T10:57:40.571Z,14948.00
2019-05-11T10:58:40.608Z,14692.00
2019-05-11T10:59:40.648Z,14448.00
2019-05-11T11:00:40.684Z,14264.00
2019-05-11T11:01:40.720Z,14152.00
2019-05-11T11:02:40.760Z,14092.00
2019-05-11T11:03:40.801Z,14032.00
2019-05-11T11:04:40.828Z,13968.00
2019-05-11T11:05:40.866Z,13860.00
2019-05-11T11:06:40.909Z,13748.00
2019-05-11T11:07:40.941Z,13668.00
2019-05-11T11:08:40.983Z,13588.00
2019-05-11T11:09:41.013Z,13488.00
2019-05-11T11:10:41.053Z,13352.00
2019-05-11T11:11:41.087Z,13160.00
2019-05-11T11:12:41.125Z,12956.00
2019-05-11T11:13:41.165Z,12748.00
2019-05-11T11:14:41.201Z,12580.00
2019-05-11T11:15:41.232Z,12464.00
2019-05-11T11:16:42.916Z,12420.00
2019-05-11T11:17:41.301Z,12432.00
2019-05-11T11:18:41.343Z,12532.00
2019-05-11T11:19:41.374Z,12700.00
2019-05-11T11:20:41.412Z,12976.00
2019-05-11T11:21:41.447Z,13324.00
2019-05-11T11:22:44.272Z,13672.00
2019-05-11T11:23:41.521Z,13988.00
2019-05-11T11:24:41.556Z,14264.00
2019-05-11T11:25:41.590Z,14460.00
2019-05-11T11:26:41.625Z,14648.00
2019-05-11T11:27:41.662Z,14812.00
2019-05-11T11:28:41.702Z,14860.00
2019-05-11T11:29:41.733Z,14752.00
2019-05-11T11:30:41.769Z,14472.00
2019-05-11T11:31:41.805Z,14196.00
2019-05-11T11:32:41.845Z,13896.00
2019-05-11T11:33:41.875Z,13640.00
2019-05-11T11:34:41.915Z,13432.00
2019-05-11T11:35:41.950Z,13296.00
2019-05-11T11:36:41.983Z,13236.00
2019-05-11T11:37:42.020Z,13252.00
2019-05-11T11:38:42.057Z,13376.00
2019-05-11T11:39:42.091Z,13548.00
2019-05-11T11:40:42.882Z,13768.00
2019-05-11T11:41:42.165Z,13912.00
2019-05-11T11:42:42.209Z,13996.00
2019-05-11T11:43:42.234Z,14040.00
2019-05-11T11:44:42.272Z,14020.00
2019-05-11T11:45:42.309Z,13932.00
2019-05-11T11:46:54.252Z,13816.00
2019-05-11T11:47:42.376Z,13736.00
2019-05-11T11:48:42.414Z,13704.00
2019-05-11T11:49:42.448Z,13740.00
2019-05-11T11:50:42.484Z,13788.00
2019-05-11T11:51:42.518Z,13812.00
2019-05-11T11:52:45.074Z,13828.00
2019-05-11T11:53:42.591Z,13816.00
2019-05-11T11:54:42.639Z,13732.00
2019-05-11T11:55:42.668Z,13620.00
2019-05-11T11:56:42.705Z,13480.00
2019-05-11T11:57:42.734Z,13344.00
2019-05-11T11:58:42.769Z,13216.00
2019-05-11T11:59:42.805Z,13096.00
2019-05-11T12:00:42.839Z,12996.00
2019-05-11T12:01:42.875Z,12916.00
2019-05-11T12:02:42.910Z,12812.00
2019-05-11T12:03:42.947Z,12700.00
2019-05-11T12:04:42.991Z,12588.00
2019-05-11T12:05:43.026Z,12464.00